sim
Sign-in with your pilot id or email,
or register
Callsign
Passwort

Schedule Details

Flight Number: DLH1853 (1)
Departure: Milan Malpensa Airport (LIMC) at 08:15
Arrival: Munich Airport (EDDM) at 09:25
Route: Lufthansa Passenger Schedule. Enter filed route here before submitting Pirep.

Weather Information
Getting current METAR information for LIMC 280750Z 33007KT CAVOK 12/07 Q1005 NOSIG
Getting current METAR information for EDDM 280750Z VRB02KT 9999 -RA FEW005 BKN045 07/06 Q1010 NOSIG

Schedule Frequency

Route Map